createdAt,value
2023-03-28T00:01:08.331Z,1.48
2023-03-28T00:03:40.093Z,1.77
2023-03-28T00:08:40.662Z,2.17
2023-03-28T00:11:10.790Z,1.73
2023-03-28T00:13:39.663Z,2.15
2023-03-28T00:16:10.392Z,1.70
2023-03-28T00:18:39.224Z,1.58
2023-03-28T00:21:19.735Z,1.70
2023-03-28T00:23:52.255Z,1.48
2023-03-28T00:26:20.975Z,1.60
2023-03-28T00:28:49.328Z,2.03
2023-03-28T00:31:17.562Z,1.40
2023-03-28T00:33:47.544Z,1.65
2023-03-28T00:36:22.774Z,1.83
2023-03-28T00:38:52.279Z,1.45
2023-03-28T00:41:21.903Z,4.22
2023-03-28T00:43:52.218Z,1.15
2023-03-28T00:46:26.396Z,1.63
2023-03-28T00:48:58.967Z,1.67
2023-03-28T00:51:32.890Z,1.60
2023-03-28T00:54:04.860Z,2.17
2023-03-28T00:59:08.002Z,1.55
2023-03-28T01:01:37.048Z,1.20
2023-03-28T01:04:07.009Z,2.08
2023-03-28T01:06:40.502Z,1.70
2023-03-28T01:09:10.718Z,1.42
2023-03-28T01:11:41.909Z,1.42
2023-03-28T01:14:13.291Z,1.25
2023-03-28T01:16:43.072Z,1.77
2023-03-28T01:19:26.670Z,1.77
2023-03-28T01:22:32.235Z,1.42
2023-03-28T01:25:21.511Z,1.77
2023-03-28T01:27:53.400Z,2.08
2023-03-28T01:33:28.800Z,1.75
2023-03-28T01:36:36.584Z,1.95
2023-03-28T01:39:12.889Z,1.60
2023-03-28T01:41:47.212Z,1.40
2023-03-28T01:44:25.924Z,1.67
2023-03-28T01:47:01.186Z,1.63
2023-03-28T01:49:35.964Z,1.92
2023-03-28T01:52:11.784Z,2.08
2023-03-28T01:54:45.899Z,1.67
2023-03-28T01:57:20.444Z,1.77
2023-03-28T01:59:51.999Z,1.60
2023-03-28T02:02:27.384Z,1.88
2023-03-28T02:04:58.301Z,1.92
2023-03-28T02:07:28.873Z,1.92
2023-03-28T02:09:59.442Z,1.98
2023-03-28T02:12:32.962Z,1.80
2023-03-28T02:15:05.649Z,1.75
2023-03-28T02:17:39.124Z,1.98
2023-03-28T02:20:12.152Z,2.55
2023-03-28T02:22:47.977Z,2.35
2023-03-28T02:25:18.474Z,1.98
2023-03-28T02:27:48.757Z,1.95
2023-03-28T02:30:17.803Z,2.40
2023-03-28T02:32:50.622Z,2.63
2023-03-28T02:35:24.366Z,1.92
2023-03-28T02:37:58.786Z,2.25
2023-03-28T02:40:38.500Z,2.30
2023-03-28T02:43:38.916Z,2.55
2023-03-28T02:46:20.961Z,2.30
2023-03-28T02:51:34.817Z,1.90
2023-03-28T02:54:17.443Z,2.25
2023-03-28T02:56:53.331Z,2.20
2023-03-28T02:59:28.570Z,3.72
2023-03-28T03:01:56.939Z,2.78
2023-03-28T03:04:25.250Z,3.08
2023-03-28T03:06:53.532Z,2.60
2023-03-28T03:09:23.096Z,3.15
2023-03-28T03:11:52.663Z,2.42
2023-03-28T03:14:21.058Z,2.10
2023-03-28T03:16:51.714Z,2.88
2023-03-28T03:19:20.036Z,2.45
2023-03-28T03:21:49.638Z,2.83
2023-03-28T03:24:17.859Z,2.45
2023-03-28T03:26:46.645Z,3.65
2023-03-28T03:29:16.718Z,3.17
2023-03-28T03:31:44.980Z,2.75
2023-03-28T03:34:13.206Z,3.33
2023-03-28T03:36:42.763Z,2.25
2023-03-28T03:39:11.174Z,2.83
2023-03-28T03:41:39.417Z,2.63
2023-03-28T03:44:08.044Z,2.42
2023-03-28T03:46:37.829Z,2.72
2023-03-28T03:49:06.307Z,2.80
2023-03-28T03:51:34.529Z,2.70
2023-03-28T03:54:02.797Z,2.55
2023-03-28T03:56:31.056Z,3.25
2023-03-28T03:58:59.892Z,3.05
2023-03-28T04:01:30.294Z,2.70
2023-03-28T04:04:00.124Z,2.88
2023-03-28T04:06:29.637Z,3.03
2023-03-28T04:08:58.023Z,2.80
2023-03-28T04:11:26.295Z,3.15
2023-03-28T04:13:54.475Z,2.40
2023-03-28T04:16:24.131Z,3.30
2023-03-28T04:18:52.934Z,3.17
2023-03-28T04:21:27.660Z,3.10
2023-03-28T04:23:56.451Z,2.78
2023-03-28T04:26:27.118Z,3.17
2023-03-28T04:28:56.246Z,3.42
2023-03-28T04:31:29.866Z,2.65
2023-03-28T04:34:00.586Z,2.85
2023-03-28T04:36:30.336Z,3.83
2023-03-28T04:39:02.834Z,3.13
2023-03-28T04:41:32.345Z,4.70
2023-03-28T04:44:01.119Z,9.07
2023-03-28T04:46:30.054Z,4.70
2023-03-28T04:48:58.394Z,3.53
2023-03-28T04:51:28.720Z,3.13
2023-03-28T04:53:58.397Z,3.33
2023-03-28T04:56:27.182Z,4.18
2023-03-28T04:58:55.958Z,4.07
2023-03-28T05:01:25.990Z,4.03
2023-03-28T05:03:54.815Z,3.78
2023-03-28T05:06:25.967Z,4.07
2023-03-28T05:08:54.168Z,4.22
2023-03-28T05:11:23.853Z,4.90
2023-03-28T05:13:52.051Z,5.18
2023-03-28T05:16:20.587Z,5.95
2023-03-28T05:18:48.867Z,8.05
2023-03-28T05:21:17.064Z,6.97
2023-03-28T05:23:51.550Z,5.35
2023-03-28T05:26:20.542Z,4.90
2023-03-28T05:28:50.255Z,5.25
2023-03-28T05:31:18.697Z,4.85
2023-03-28T05:33:47.008Z,6.35
2023-03-28T05:36:15.214Z,6.85
2023-03-28T05:38:43.436Z,5.63
2023-03-28T05:41:11.717Z,5.13
2023-03-28T05:43:39.889Z,6.72
2023-03-28T05:46:10.210Z,6.55
2023-03-28T05:48:38.736Z,6.13
2023-03-28T05:51:07.462Z,6.30
2023-03-28T05:53:35.839Z,6.68
2023-03-28T05:56:04.377Z,5.70
2023-03-28T05:58:32.605Z,6.13
2023-03-28T06:01:02.708Z,7.90
2023-03-28T06:03:32.825Z,7.22
2023-03-28T06:06:01.911Z,6.10
2023-03-28T06:08:30.170Z,5.97
2023-03-28T06:11:02.495Z,7.13
2023-03-28T06:13:31.362Z,8.82
2023-03-28T06:15:59.600Z,7.40
2023-03-28T06:18:27.878Z,7.35
2023-03-28T06:20:58.066Z,9.10
2023-03-28T06:23:26.612Z,8.55
2023-03-28T06:25:54.852Z,7.20
2023-03-28T06:28:23.080Z,6.80
2023-03-28T06:30:52.047Z,7.50
2023-03-28T06:33:20.464Z,5.82
2023-03-28T06:35:48.762Z,6.85
2023-03-28T06:38:18.629Z,6.50
2023-03-28T06:40:47.176Z,7.80
2023-03-28T06:43:15.394Z,7.80
2023-03-28T06:45:43.646Z,7.00
2023-03-28T06:48:12.011Z,6.60
2023-03-28T06:50:40.215Z,7.53
2023-03-28T06:53:08.434Z,6.53
2023-03-28T06:55:38.078Z,7.47
2023-03-28T06:58:06.759Z,6.55
2023-03-28T07:00:35.114Z,7.45
2023-03-28T07:03:03.574Z,7.50
2023-03-28T07:05:31.862Z,6.63
2023-03-28T07:08:00.248Z,6.53
2023-03-28T07:10:28.433Z,6.68
2023-03-28T07:12:58.090Z,6.20
2023-03-28T07:15:26.283Z,5.57
2023-03-28T07:17:54.637Z,6.00
2023-03-28T07:20:23.521Z,5.93
2023-03-28T07:22:52.147Z,5.70
2023-03-28T07:25:21.527Z,6.80
2023-03-28T07:27:50.224Z,6.20
2023-03-28T07:30:20.014Z,6.07
2023-03-28T07:32:56.715Z,5.70
2023-03-28T07:35:28.259Z,5.10
2023-03-28T07:37:56.512Z,4.45
2023-03-28T07:40:24.744Z,4.78
2023-03-28T07:42:53.025Z,4.68
2023-03-28T07:45:22.677Z,5.68
2023-03-28T07:47:50.849Z,4.93
2023-03-28T07:50:20.122Z,4.53
2023-03-28T07:52:48.391Z,4.60
2023-03-28T07:55:17.253Z,4.95
2023-03-28T07:57:46.565Z,4.13
2023-03-28T08:00:17.381Z,4.30
2023-03-28T08:02:47.152Z,4.45
2023-03-28T08:05:15.590Z,7.18
2023-03-28T08:07:46.061Z,6.00
2023-03-28T08:10:15.206Z,5.13
2023-03-28T08:12:43.810Z,8.15
2023-03-28T08:15:12.791Z,5.40
2023-03-28T08:17:41.175Z,4.90
2023-03-28T08:20:12.236Z,5.00
2023-03-28T08:22:41.220Z,4.07
2023-03-28T08:25:10.492Z,4.53
2023-03-28T08:27:38.811Z,4.72
2023-03-28T08:30:08.443Z,4.13
2023-03-28T08:32:36.973Z,3.20
2023-03-28T08:35:07.004Z,3.95
2023-03-28T08:37:36.622Z,4.20
2023-03-28T08:40:10.407Z,3.08
2023-03-28T08:43:08.057Z,3.72
2023-03-28T08:45:46.622Z,2.80
2023-03-28T08:48:22.373Z,2.90
2023-03-28T08:50:54.501Z,3.50
2023-03-28T08:53:30.466Z,4.22
2023-03-28T08:56:00.178Z,3.55
2023-03-28T08:58:38.780Z,4.22
2023-03-28T09:01:09.731Z,3.55
2023-03-28T09:03:38.141Z,2.17
2023-03-28T09:06:16.260Z,3.40
2023-03-28T09:08:59.395Z,3.28
2023-03-28T09:11:39.321Z,3.05
2023-03-28T09:14:25.394Z,3.50
2023-03-28T09:17:07.452Z,2.78
2023-03-28T09:22:26.062Z,3.40
2023-03-28T09:25:17.701Z,2.72
2023-03-28T09:27:54.253Z,2.60
2023-03-28T09:30:26.655Z,3.03
2023-03-28T09:32:58.409Z,3.00
2023-03-28T09:35:29.125Z,4.78
2023-03-28T09:38:02.335Z,2.50
2023-03-28T09:40:33.150Z,2.45
2023-03-28T09:43:07.707Z,2.55
2023-03-28T09:45:49.758Z,2.60
2023-03-28T09:48:22.172Z,2.00
2023-03-28T09:50:50.681Z,2.78
2023-03-28T09:53:23.895Z,2.40
2023-03-28T09:56:04.492Z,1.98
2023-03-28T09:58:49.349Z,3.33
2023-03-28T10:01:33.284Z,1.88
2023-03-28T10:04:02.395Z,2.50
2023-03-28T10:06:32.701Z,2.45
2023-03-28T10:09:17.017Z,19.95
2023-03-28T10:11:49.949Z,3.95
2023-03-28T10:14:35.467Z,2.35
2023-03-28T10:17:06.261Z,1.85
2023-03-28T10:19:37.169Z,1.67
2023-03-28T10:22:12.254Z,1.23
2023-03-28T10:24:41.504Z,1.08
2023-03-28T10:27:18.328Z,1.45
2023-03-28T10:29:48.168Z,1.20
2023-03-28T10:32:26.142Z,1.10
2023-03-28T10:35:02.804Z,0.80
2023-03-28T10:37:33.258Z,1.40
2023-03-28T10:40:05.561Z,1.60
2023-03-28T10:42:46.381Z,1.50
2023-03-28T10:45:23.914Z,1.35
2023-03-28T10:47:56.006Z,1.50
2023-03-28T10:53:14.831Z,1.35
2023-03-28T10:55:52.417Z,1.65
2023-03-28T10:58:31.792Z,1.95
2023-03-28T11:01:05.484Z,2.60
2023-03-28T11:03:47.067Z,2.28
2023-03-28T11:06:21.885Z,1.45
2023-03-28T11:09:01.890Z,1.30
2023-03-28T11:11:52.287Z,1.40
2023-03-28T11:14:34.189Z,1.90
2023-03-28T11:17:08.876Z,1.60
2023-03-28T11:19:53.296Z,1.40
2023-03-28T11:22:28.913Z,1.50
2023-03-28T11:25:09.520Z,2.00
2023-03-28T11:27:43.375Z,2.00
2023-03-28T11:30:17.642Z,1.65
2023-03-28T11:32:50.335Z,1.65
2023-03-28T11:35:26.616Z,2.15
2023-03-28T11:38:04.020Z,2.70
2023-03-28T11:40:37.581Z,1.67
2023-03-28T11:43:07.583Z,1.50
2023-03-28T11:45:51.376Z,1.67
2023-03-28T11:48:26.208Z,1.50
2023-03-28T11:51:04.227Z,1.67
2023-03-28T11:53:37.669Z,1.02
2023-03-28T11:56:13.014Z,1.00
2023-03-28T11:58:44.818Z,1.10
2023-03-28T12:01:18.296Z,0.75
2023-03-28T12:03:56.767Z,1.45
2023-03-28T12:06:31.628Z,1.00
2023-03-28T12:09:05.914Z,0.80
2023-03-28T12:11:40.357Z,0.98
2023-03-28T12:14:25.524Z,1.08
2023-03-28T12:16:56.843Z,0.93
2023-03-28T12:19:32.741Z,0.50
2023-03-28T12:22:09.260Z,1.65
2023-03-28T12:24:46.917Z,0.90
2023-03-28T12:27:25.493Z,0.75
2023-03-28T12:29:59.248Z,0.70
2023-03-28T12:32:48.338Z,0.88
2023-03-28T12:35:22.640Z,1.05
2023-03-28T12:38:02.761Z,0.82
2023-03-28T12:40:48.277Z,0.80
2023-03-28T12:43:19.313Z,0.68
2023-03-28T12:45:53.059Z,0.80
2023-03-28T12:48:32.537Z,0.60
2023-03-28T12:51:06.133Z,1.02
2023-03-28T12:53:34.927Z,0.68
2023-03-28T12:56:04.501Z,0.75
2023-03-28T12:58:36.923Z,0.80
2023-03-28T13:01:35.219Z,0.60
2023-03-28T13:04:18.852Z,0.98
2023-03-28T13:06:58.467Z,1.00
2023-03-28T13:09:54.897Z,0.50
2023-03-28T13:12:31.471Z,0.70
2023-03-28T13:15:02.398Z,0.57
2023-03-28T13:17:33.032Z,0.80
2023-03-28T13:20:25.962Z,0.77
2023-03-28T13:22:58.429Z,1.10
2023-03-28T13:25:29.813Z,0.75
2023-03-28T13:28:00.775Z,0.93
2023-03-28T13:30:31.007Z,1.50
2023-03-28T13:33:02.280Z,0.90
2023-03-28T13:35:46.905Z,1.23
2023-03-28T13:38:25.945Z,0.70
2023-03-28T13:40:56.184Z,1.05
2023-03-28T13:43:26.881Z,1.00
2023-03-28T13:45:59.028Z,1.17
2023-03-28T13:48:33.657Z,1.23
2023-03-28T13:51:07.493Z,0.90
2023-03-28T13:53:46.861Z,0.90
2023-03-28T13:56:24.387Z,1.25
2023-03-28T13:58:55.381Z,1.00
2023-03-28T14:01:25.848Z,1.10
2023-03-28T14:03:55.921Z,0.98
2023-03-28T14:06:27.848Z,1.92
2023-03-28T14:11:30.570Z,1.60
2023-03-28T14:14:09.696Z,0.95
2023-03-28T14:16:38.708Z,1.05
2023-03-28T14:19:09.115Z,1.90
2023-03-28T14:21:39.227Z,1.25
2023-03-28T14:24:09.074Z,1.20
2023-03-28T14:26:38.530Z,1.30
2023-03-28T14:29:12.042Z,1.20
2023-03-28T14:31:46.151Z,1.67
2023-03-28T14:34:18.108Z,1.10
2023-03-28T14:37:01.666Z,1.10
2023-03-28T14:39:32.284Z,1.38
2023-03-28T14:42:03.867Z,1.00
2023-03-28T14:44:36.270Z,0.82
2023-03-28T14:47:04.993Z,1.17
2023-03-28T14:49:34.478Z,1.00
2023-03-28T14:52:04.258Z,0.70
2023-03-28T14:54:34.897Z,1.38
2023-03-28T14:57:05.991Z,1.00
2023-03-28T14:59:38.097Z,24.63
2023-03-28T15:02:07.685Z,4.68
2023-03-28T15:04:36.785Z,31.15
2023-03-28T15:07:09.020Z,9.50
2023-03-28T15:09:37.417Z,32.00
2023-03-28T15:12:09.208Z,52.20
2023-03-28T15:14:41.289Z,33.28
2023-03-28T15:17:17.108Z,12.30
2023-03-28T15:19:47.586Z,16.15
2023-03-28T15:22:23.144Z,5.47
2023-03-28T15:24:51.763Z,4.60
2023-03-28T15:27:27.024Z,2.03
2023-03-28T15:29:56.036Z,2.50
2023-03-28T15:32:24.577Z,3.40
2023-03-28T15:34:58.660Z,2.08
2023-03-28T15:37:28.562Z,1.83
2023-03-28T15:40:20.061Z,2.40
2023-03-28T15:42:53.067Z,1.90
2023-03-28T15:45:39.000Z,1.52
2023-03-28T15:48:07.684Z,1.20
2023-03-28T15:50:38.651Z,1.27
2023-03-28T15:53:14.852Z,0.98
2023-03-28T15:55:44.492Z,1.02
2023-03-28T15:58:15.740Z,2.95
2023-03-28T16:00:46.608Z,54.28
2023-03-28T16:03:36.802Z,30.35
2023-03-28T16:06:30.990Z,9.80
2023-03-28T16:09:15.914Z,10.65
2023-03-28T16:11:45.240Z,7.75
2023-03-28T16:14:17.274Z,9.18
2023-03-28T16:16:45.574Z,9.15
2023-03-28T16:19:20.315Z,7.88
2023-03-28T16:21:48.935Z,6.82
2023-03-28T16:24:19.800Z,10.10
2023-03-28T16:26:48.923Z,14.25
2023-03-28T16:29:17.121Z,4.22
2023-03-28T16:31:45.459Z,5.35
2023-03-28T16:34:13.755Z,12.75
2023-03-28T16:36:42.013Z,7.43
2023-03-28T16:39:11.553Z,8.63
2023-03-28T16:41:41.121Z,7.22
2023-03-28T16:44:09.440Z,3.92
2023-03-28T16:46:37.637Z,4.68
2023-03-28T16:49:05.908Z,5.38
2023-03-28T16:51:34.064Z,3.60
2023-03-28T16:54:02.384Z,6.20
2023-03-28T16:56:30.571Z,5.18
2023-03-28T16:59:00.315Z,4.35
2023-03-28T17:01:28.591Z,5.80
2023-03-28T17:03:56.780Z,9.00
2023-03-28T17:06:25.615Z,6.55
2023-03-28T17:08:54.559Z,2.92
2023-03-28T17:11:23.368Z,2.47
2023-03-28T17:13:54.512Z,1.83
2023-03-28T17:16:24.950Z,2.00
2023-03-28T17:18:53.742Z,1.60
2023-03-28T17:21:22.247Z,1.70
2023-03-28T17:23:52.763Z,1.70
2023-03-28T17:26:21.028Z,3.15
2023-03-28T17:28:50.901Z,2.45
2023-03-28T17:31:21.725Z,4.55
2023-03-28T17:33:51.896Z,4.88
2023-03-28T17:36:22.479Z,3.47
2023-03-28T17:38:51.665Z,8.52
2023-03-28T17:41:19.915Z,4.95
2023-03-28T17:43:48.046Z,3.30
2023-03-28T17:46:17.116Z,9.00
2023-03-28T17:48:45.813Z,13.63
2023-03-28T17:51:15.926Z,9.45
2023-03-28T17:53:46.909Z,6.22
2023-03-28T17:56:15.824Z,4.50
2023-03-28T17:58:44.387Z,3.67
2023-03-28T18:01:14.785Z,4.35
2023-03-28T18:03:44.146Z,4.70
2023-03-28T18:06:12.975Z,5.10
2023-03-28T18:08:44.809Z,4.13
2023-03-28T18:13:43.434Z,3.45
2023-03-28T18:16:14.930Z,2.33
2023-03-28T18:18:43.188Z,2.17
2023-03-28T18:21:12.717Z,2.05
2023-03-28T18:23:42.561Z,2.50
2023-03-28T18:26:11.992Z,7.80
2023-03-28T18:28:40.469Z,19.50
2023-03-28T18:31:09.833Z,52.58
2023-03-28T18:33:38.322Z,136.57
2023-03-28T18:36:07.515Z,186.13
2023-03-28T18:38:39.725Z,294.30
2023-03-28T18:41:09.892Z,312.23
2023-03-28T18:43:38.411Z,540.88
2023-03-28T18:46:08.269Z,582.75
2023-03-28T18:48:36.898Z,370.75
2023-03-28T18:51:06.515Z,215.30
2023-03-28T18:53:35.118Z,96.57
2023-03-28T18:56:03.465Z,36.88
2023-03-28T18:58:33.269Z,19.48
2023-03-28T19:01:03.675Z,14.25
2023-03-28T19:03:36.262Z,11.82
2023-03-28T19:06:04.924Z,7.25
2023-03-28T19:08:33.153Z,64.65
2023-03-28T19:11:07.427Z,64.80
2023-03-28T19:13:37.152Z,37.00
2023-03-28T19:16:07.919Z,17.73
2023-03-28T19:18:38.716Z,12.65
2023-03-28T19:21:07.909Z,11.40
2023-03-28T19:23:36.959Z,9.05
2023-03-28T19:26:06.822Z,10.57
2023-03-28T19:28:37.319Z,9.80
2023-03-28T19:31:07.456Z,11.15
2023-03-28T19:33:37.350Z,10.75
2023-03-28T19:36:06.947Z,19.42
2023-03-28T19:38:36.812Z,16.90
2023-03-28T19:41:10.374Z,13.75
2023-03-28T19:43:40.887Z,28.63
2023-03-28T19:46:12.014Z,20.15
2023-03-28T19:48:41.458Z,15.30
2023-03-28T19:51:09.813Z,14.05
2023-03-28T19:53:38.089Z,11.40
2023-03-28T19:56:07.102Z,32.38
2023-03-28T19:58:35.295Z,33.80
2023-03-28T20:01:05.089Z,38.92
2023-03-28T20:03:33.562Z,53.35
2023-03-28T20:06:05.636Z,25.15
2023-03-28T20:08:34.380Z,28.35
2023-03-28T20:11:03.679Z,48.13
2023-03-28T20:13:32.182Z,21.83
2023-03-28T20:16:04.670Z,11.52
2023-03-28T20:18:33.728Z,21.73
2023-03-28T20:21:03.560Z,29.13
2023-03-28T20:23:33.541Z,21.73
2023-03-28T20:26:14.177Z,20.90
2023-03-28T20:28:42.550Z,21.75
2023-03-28T20:31:15.169Z,15.32
2023-03-28T20:33:43.818Z,12.00
2023-03-28T20:36:12.283Z,19.92
2023-03-28T20:38:40.876Z,16.42
2023-03-28T20:41:12.512Z,15.25
2023-03-28T20:43:47.403Z,19.77
2023-03-28T20:46:19.596Z,16.35
2023-03-28T20:48:52.263Z,24.85
2023-03-28T20:51:22.889Z,10.63
2023-03-28T20:53:54.731Z,12.57
2023-03-28T20:56:24.105Z,12.85
2023-03-28T20:58:53.369Z,4.43
2023-03-28T21:01:26.383Z,3.33
2023-03-28T21:03:58.797Z,2.75
2023-03-28T21:06:30.429Z,2.00
2023-03-28T21:09:00.830Z,1.92
2023-03-28T21:11:31.380Z,2.60
2023-03-28T21:14:01.106Z,2.00
2023-03-28T21:16:32.614Z,1.55
2023-03-28T21:19:01.677Z,1.73
2023-03-28T21:21:33.082Z,1.38
2023-03-28T21:24:02.188Z,1.45
2023-03-28T21:26:31.292Z,1.60
2023-03-28T21:28:59.678Z,1.60
2023-03-28T21:31:30.832Z,1.83
2023-03-28T21:33:59.904Z,2.67
2023-03-28T21:36:28.764Z,2.28
2023-03-28T21:38:58.195Z,1.73
2023-03-28T21:41:27.502Z,1.80
2023-03-28T21:43:56.088Z,1.65
2023-03-28T21:46:24.475Z,1.30
2023-03-28T21:48:54.131Z,1.27
2023-03-28T21:51:22.336Z,1.40
2023-03-28T21:53:50.837Z,1.67
2023-03-28T21:56:18.996Z,1.15
2023-03-28T21:58:47.228Z,1.63
2023-03-28T22:01:17.658Z,1.38
2023-03-28T22:03:46.781Z,1.38
2023-03-28T22:06:17.731Z,1.30
2023-03-28T22:08:51.872Z,1.45
2023-03-28T22:11:27.991Z,1.35
2023-03-28T22:14:01.499Z,1.35
2023-03-28T22:16:35.065Z,1.52
2023-03-28T22:19:03.482Z,1.40
2023-03-28T22:21:33.402Z,1.40
2023-03-28T22:24:04.379Z,1.70
2023-03-28T22:26:32.609Z,1.30
2023-03-28T22:29:00.813Z,1.45
2023-03-28T22:31:29.583Z,1.90
2023-03-28T22:33:57.891Z,1.55
2023-03-28T22:36:26.356Z,1.33
2023-03-28T22:38:57.175Z,1.65
2023-03-28T22:41:25.530Z,1.40
2023-03-28T22:43:53.770Z,1.50
2023-03-28T22:46:22.260Z,1.50
2023-03-28T22:48:54.292Z,1.25
2023-03-28T22:51:27.741Z,1.40
2023-03-28T22:54:01.802Z,1.58
2023-03-28T22:56:30.680Z,1.10
2023-03-28T22:59:01.223Z,1.40
2023-03-28T23:01:30.035Z,1.40
2023-03-28T23:03:58.519Z,2.17
2023-03-28T23:06:27.175Z,1.48
2023-03-28T23:08:55.412Z,1.20
2023-03-28T23:11:24.982Z,1.88
2023-03-28T23:13:53.278Z,1.48
2023-03-28T23:16:21.604Z,1.73
2023-03-28T23:18:50.842Z,1.67
2023-03-28T23:21:19.370Z,1.50
2023-03-28T23:23:47.672Z,1.65
2023-03-28T23:26:15.844Z,1.38
2023-03-28T23:28:45.752Z,1.60
2023-03-28T23:31:14.093Z,1.13
2023-03-28T23:33:44.294Z,1.42
2023-03-28T23:36:14.138Z,1.35
2023-03-28T23:38:43.489Z,1.30
2023-03-28T23:41:11.723Z,1.30
2023-03-28T23:43:39.998Z,1.15
2023-03-28T23:46:09.724Z,1.35
2023-03-28T23:48:37.954Z,1.38
2023-03-28T23:51:06.738Z,1.27
2023-03-28T23:53:35.029Z,1.65
2023-03-28T23:56:03.924Z,1.08
2023-03-28T23:58:32.099Z,1.33
